sensor_id;sensor_type;location;lat;lon;timestamp;P1;durP1;ratioP1;P2;durP2;ratioP2
1026;SDS011;502;48.746;9.214;2023-02-04T00:01:44;4.90;;;3.20;;
1026;SDS011;502;48.746;9.214;2023-02-04T00:04:11;4.10;;;3.07;;
1026;SDS011;502;48.746;9.214;2023-02-04T00:06:38;3.47;;;2.87;;
1026;SDS011;502;48.746;9.214;2023-02-04T00:09:05;3.80;;;3.20;;
1026;SDS011;502;48.746;9.214;2023-02-04T00:11:32;3.40;;;2.97;;
1026;SDS011;502;48.746;9.214;2023-02-04T00:14:00;3.33;;;2.57;;
1026;SDS011;502;48.746;9.214;2023-02-04T00:16:26;3.70;;;3.10;;
1026;SDS011;502;48.746;9.214;2023-02-04T00:18:53;3.57;;;3.23;;
1026;SDS011;502;48.746;9.214;2023-02-04T00:21:20;3.13;;;2.60;;
1026;SDS011;502;48.746;9.214;2023-02-04T00:23:46;3.20;;;2.73;;
1026;SDS011;502;48.746;9.214;2023-02-04T00:26:15;3.77;;;2.70;;
1026;SDS011;502;48.746;9.214;2023-02-04T00:28:42;3.27;;;2.63;;
1026;SDS011;502;48.746;9.214;2023-02-04T00:31:10;3.03;;;2.40;;
1026;SDS011;502;48.746;9.214;2023-02-04T00:33:38;3.17;;;2.47;;
1026;SDS011;502;48.746;9.214;2023-02-04T00:36:07;2.97;;;2.00;;
1026;SDS011;502;48.746;9.214;2023-02-04T00:38:34;2.93;;;2.27;;
1026;SDS011;502;48.746;9.214;2023-02-04T00:41:01;3.97;;;1.90;;
1026;SDS011;502;48.746;9.214;2023-02-04T00:43:28;3.03;;;2.00;;
1026;SDS011;502;48.746;9.214;2023-02-04T00:45:54;2.57;;;2.37;;
1026;SDS011;502;48.746;9.214;2023-02-04T00:48:22;2.43;;;2.23;;
1026;SDS011;502;48.746;9.214;2023-02-04T00:50:49;3.30;;;2.03;;
1026;SDS011;502;48.746;9.214;2023-02-04T00:53:17;3.90;;;2.30;;
1026;SDS011;502;48.746;9.214;2023-02-04T00:55:44;3.90;;;2.40;;
1026;SDS011;502;48.746;9.214;2023-02-04T00:58:10;2.77;;;2.03;;
1026;SDS011;502;48.746;9.214;2023-02-04T01:00:37;2.80;;;1.93;;
1026;SDS011;502;48.746;9.214;2023-02-04T01:03:04;2.67;;;2.23;;
1026;SDS011;502;48.746;9.214;2023-02-04T01:05:32;2.60;;;2.30;;
1026;SDS011;502;48.746;9.214;2023-02-04T01:07:58;3.40;;;2.40;;
1026;SDS011;502;48.746;9.214;2023-02-04T01:10:25;3.67;;;2.87;;
1026;SDS011;502;48.746;9.214;2023-02-04T01:12:52;4.23;;;3.20;;
1026;SDS011;502;48.746;9.214;2023-02-04T01:15:18;3.70;;;2.80;;
1026;SDS011;502;48.746;9.214;2023-02-04T01:17:46;3.70;;;2.97;;
1026;SDS011;502;48.746;9.214;2023-02-04T01:20:13;4.03;;;3.30;;
1026;SDS011;502;48.746;9.214;2023-02-04T01:22:41;4.67;;;3.20;;
1026;SDS011;502;48.746;9.214;2023-02-04T01:25:08;4.13;;;3.37;;
1026;SDS011;502;48.746;9.214;2023-02-04T01:27:41;3.90;;;3.43;;
1026;SDS011;502;48.746;9.214;2023-02-04T01:30:09;4.63;;;2.97;;
1026;SDS011;502;48.746;9.214;2023-02-04T01:32:36;4.50;;;3.20;;
1026;SDS011;502;48.746;9.214;2023-02-04T01:35:03;4.73;;;4.10;;
1026;SDS011;502;48.746;9.214;2023-02-04T01:37:31;3.80;;;3.43;;
1026;SDS011;502;48.746;9.214;2023-02-04T01:39:59;4.40;;;3.73;;
1026;SDS011;502;48.746;9.214;2023-02-04T01:42:26;5.60;;;3.00;;
1026;SDS011;502;48.746;9.214;2023-02-04T01:44:52;4.93;;;3.70;;
1026;SDS011;502;48.746;9.214;2023-02-04T01:47:20;4.17;;;3.07;;
1026;SDS011;502;48.746;9.214;2023-02-04T01:49:48;3.40;;;2.73;;
1026;SDS011;502;48.746;9.214;2023-02-04T01:52:18;4.00;;;1.90;;
1026;SDS011;502;48.746;9.214;2023-02-04T01:54:45;2.40;;;2.00;;
1026;SDS011;502;48.746;9.214;2023-02-04T01:57:14;2.47;;;1.73;;
1026;SDS011;502;48.746;9.214;2023-02-04T01:59:42;5.80;;;2.10;;
1026;SDS011;502;48.746;9.214;2023-02-04T02:05:05;3.37;;;2.13;;
1026;SDS011;502;48.746;9.214;2023-02-04T02:07:32;1.93;;;1.60;;
1026;SDS011;502;48.746;9.214;2023-02-04T02:09:58;2.90;;;2.20;;
1026;SDS011;502;48.746;9.214;2023-02-04T02:12:26;2.93;;;1.77;;
1026;SDS011;502;48.746;9.214;2023-02-04T02:14:53;6.70;;;1.80;;
1026;SDS011;502;48.746;9.214;2023-02-04T02:17:20;3.33;;;2.20;;
1026;SDS011;502;48.746;9.214;2023-02-04T02:19:47;3.63;;;1.67;;
1026;SDS011;502;48.746;9.214;2023-02-04T02:22:15;4.40;;;2.07;;
1026;SDS011;502;48.746;9.214;2023-02-04T02:24:46;5.43;;;1.80;;
1026;SDS011;502;48.746;9.214;2023-02-04T02:27:13;2.07;;;1.70;;
1026;SDS011;502;48.746;9.214;2023-02-04T02:29:40;6.33;;;2.37;;
1026;SDS011;502;48.746;9.214;2023-02-04T02:32:08;3.17;;;2.23;;
1026;SDS011;502;48.746;9.214;2023-02-04T02:34:36;4.10;;;1.70;;
1026;SDS011;502;48.746;9.214;2023-02-04T02:37:03;3.10;;;1.60;;
1026;SDS011;502;48.746;9.214;2023-02-04T02:39:33;4.60;;;1.70;;
1026;SDS011;502;48.746;9.214;2023-02-04T02:42:01;2.97;;;1.70;;
1026;SDS011;502;48.746;9.214;2023-02-04T02:44:28;2.87;;;1.97;;
1026;SDS011;502;48.746;9.214;2023-02-04T02:46:55;3.63;;;1.97;;
1026;SDS011;502;48.746;9.214;2023-02-04T02:49:22;4.17;;;1.87;;
1026;SDS011;502;48.746;9.214;2023-02-04T02:51:49;2.47;;;1.40;;
1026;SDS011;502;48.746;9.214;2023-02-04T02:54:18;2.90;;;2.00;;
1026;SDS011;502;48.746;9.214;2023-02-04T02:56:49;3.27;;;1.93;;
1026;SDS011;502;48.746;9.214;2023-02-04T02:59:17;3.93;;;2.27;;
1026;SDS011;502;48.746;9.214;2023-02-04T03:01:44;6.23;;;2.80;;
1026;SDS011;502;48.746;9.214;2023-02-04T03:04:12;2.70;;;1.70;;
1026;SDS011;502;48.746;9.214;2023-02-04T03:06:40;4.07;;;2.10;;
1026;SDS011;502;48.746;9.214;2023-02-04T03:09:06;4.73;;;2.43;;
1026;SDS011;502;48.746;9.214;2023-02-04T03:11:33;5.77;;;2.43;;
1026;SDS011;502;48.746;9.214;2023-02-04T03:14:00;4.27;;;2.20;;
1026;SDS011;502;48.746;9.214;2023-02-04T03:16:30;3.73;;;1.73;;
1026;SDS011;502;48.746;9.214;2023-02-04T03:18:58;2.70;;;2.07;;
1026;SDS011;502;48.746;9.214;2023-02-04T03:21:25;2.60;;;1.80;;
1026;SDS011;502;48.746;9.214;2023-02-04T03:23:52;3.20;;;2.57;;
1026;SDS011;502;48.746;9.214;2023-02-04T03:26:21;2.40;;;2.00;;
1026;SDS011;502;48.746;9.214;2023-02-04T03:28:48;4.10;;;2.43;;
1026;SDS011;502;48.746;9.214;2023-02-04T03:31:15;1.97;;;1.70;;
1026;SDS011;502;48.746;9.214;2023-02-04T03:33:43;3.43;;;2.30;;
1026;SDS011;502;48.746;9.214;2023-02-04T03:36:09;6.57;;;2.87;;
1026;SDS011;502;48.746;9.214;2023-02-04T03:38:37;4.30;;;2.40;;
1026;SDS011;502;48.746;9.214;2023-02-04T03:41:04;2.80;;;2.33;;
1026;SDS011;502;48.746;9.214;2023-02-04T03:43:31;3.77;;;2.60;;
1026;SDS011;502;48.746;9.214;2023-02-04T03:45:57;2.67;;;2.00;;
1026;SDS011;502;48.746;9.214;2023-02-04T03:48:24;3.90;;;2.43;;
1026;SDS011;502;48.746;9.214;2023-02-04T03:50:52;3.80;;;1.93;;
1026;SDS011;502;48.746;9.214;2023-02-04T03:53:19;5.40;;;1.90;;
1026;SDS011;502;48.746;9.214;2023-02-04T03:55:46;2.73;;;2.10;;
1026;SDS011;502;48.746;9.214;2023-02-04T03:58:13;2.87;;;2.13;;
1026;SDS011;502;48.746;9.214;2023-02-04T04:00:39;4.03;;;2.03;;
1026;SDS011;502;48.746;9.214;2023-02-04T04:03:06;5.70;;;3.20;;
1026;SDS011;502;48.746;9.214;2023-02-04T04:05:33;4.07;;;2.60;;
1026;SDS011;502;48.746;9.214;2023-02-04T04:08:01;6.87;;;3.13;;
1026;SDS011;502;48.746;9.214;2023-02-04T04:10:27;5.90;;;3.10;;
1026;SDS011;502;48.746;9.214;2023-02-04T04:12:54;3.70;;;2.53;;
1026;SDS011;502;48.746;9.214;2023-02-04T04:15:21;8.50;;;3.50;;
1026;SDS011;502;48.746;9.214;2023-02-04T04:17:47;5.73;;;3.20;;
1026;SDS011;502;48.746;9.214;2023-02-04T04:20:14;4.20;;;2.80;;
1026;SDS011;502;48.746;9.214;2023-02-04T04:22:41;3.97;;;3.00;;
1026;SDS011;502;48.746;9.214;2023-02-04T04:25:11;2.63;;;2.43;;
1026;SDS011;502;48.746;9.214;2023-02-04T04:27:37;5.13;;;2.80;;
1026;SDS011;502;48.746;9.214;2023-02-04T04:30:04;5.40;;;2.60;;
1026;SDS011;502;48.746;9.214;2023-02-04T04:32:31;4.87;;;3.10;;
1026;SDS011;502;48.746;9.214;2023-02-04T04:34:58;3.40;;;3.00;;
1026;SDS011;502;48.746;9.214;2023-02-04T04:37:24;4.47;;;2.93;;
1026;SDS011;502;48.746;9.214;2023-02-04T04:39:51;5.80;;;2.80;;
1026;SDS011;502;48.746;9.214;2023-02-04T04:42:19;8.97;;;3.10;;
1026;SDS011;502;48.746;9.214;2023-02-04T04:44:46;7.13;;;2.77;;
1026;SDS011;502;48.746;9.214;2023-02-04T04:47:12;3.73;;;2.60;;
1026;SDS011;502;48.746;9.214;2023-02-04T04:49:39;4.10;;;2.67;;
1026;SDS011;502;48.746;9.214;2023-02-04T04:52:06;3.80;;;2.30;;
1026;SDS011;502;48.746;9.214;2023-02-04T04:54:32;3.83;;;2.67;;
1026;SDS011;502;48.746;9.214;2023-02-04T04:56:59;4.00;;;3.00;;
1026;SDS011;502;48.746;9.214;2023-02-04T04:59:27;4.13;;;3.00;;
1026;SDS011;502;48.746;9.214;2023-02-04T05:01:54;7.10;;;3.13;;
1026;SDS011;502;48.746;9.214;2023-02-04T05:04:20;4.30;;;3.27;;
1026;SDS011;502;48.746;9.214;2023-02-04T05:06:47;4.60;;;3.40;;
1026;SDS011;502;48.746;9.214;2023-02-04T05:09:14;3.93;;;3.07;;
1026;SDS011;502;48.746;9.214;2023-02-04T05:11:41;5.67;;;4.33;;
1026;SDS011;502;48.746;9.214;2023-02-04T05:14:08;4.93;;;3.47;;
1026;SDS011;502;48.746;9.214;2023-02-04T05:16:36;5.50;;;3.37;;
1026;SDS011;502;48.746;9.214;2023-02-04T05:19:03;5.80;;;4.20;;
1026;SDS011;502;48.746;9.214;2023-02-04T05:21:29;5.30;;;4.30;;
1026;SDS011;502;48.746;9.214;2023-02-04T05:23:56;5.63;;;3.27;;
1026;SDS011;502;48.746;9.214;2023-02-04T05:26:23;4.43;;;3.47;;
1026;SDS011;502;48.746;9.214;2023-02-04T05:28:51;4.07;;;3.30;;
1026;SDS011;502;48.746;9.214;2023-02-04T05:31:17;4.23;;;3.70;;
1026;SDS011;502;48.746;9.214;2023-02-04T05:33:45;5.63;;;3.87;;
1026;SDS011;502;48.746;9.214;2023-02-04T05:36:12;7.77;;;3.97;;
1026;SDS011;502;48.746;9.214;2023-02-04T05:38:39;5.03;;;3.67;;
1026;SDS011;502;48.746;9.214;2023-02-04T05:41:05;6.80;;;3.87;;
1026;SDS011;502;48.746;9.214;2023-02-04T05:43:32;11.03;;;4.97;;
1026;SDS011;502;48.746;9.214;2023-02-04T05:45:59;6.40;;;4.70;;
1026;SDS011;502;48.746;9.214;2023-02-04T05:48:26;5.47;;;4.07;;
1026;SDS011;502;48.746;9.214;2023-02-04T05:50:54;5.30;;;3.80;;
1026;SDS011;502;48.746;9.214;2023-02-04T05:53:20;6.13;;;4.50;;
1026;SDS011;502;48.746;9.214;2023-02-04T05:55:47;6.67;;;4.83;;
1026;SDS011;502;48.746;9.214;2023-02-04T05:58:14;8.17;;;4.83;;
1026;SDS011;502;48.746;9.214;2023-02-04T06:00:40;11.13;;;5.30;;
1026;SDS011;502;48.746;9.214;2023-02-04T06:03:07;7.00;;;4.30;;
1026;SDS011;502;48.746;9.214;2023-02-04T06:05:33;6.33;;;4.40;;
1026;SDS011;502;48.746;9.214;2023-02-04T06:08:01;6.00;;;4.50;;
1026;SDS011;502;48.746;9.214;2023-02-04T06:10:28;7.43;;;5.40;;
1026;SDS011;502;48.746;9.214;2023-02-04T06:12:55;7.20;;;5.40;;
1026;SDS011;502;48.746;9.214;2023-02-04T06:15:22;7.10;;;4.13;;
1026;SDS011;502;48.746;9.214;2023-02-04T06:17:48;9.00;;;4.60;;
1026;SDS011;502;48.746;9.214;2023-02-04T06:20:15;11.13;;;5.43;;
1026;SDS011;502;48.746;9.214;2023-02-04T06:22:42;9.07;;;5.27;;
1026;SDS011;502;48.746;9.214;2023-02-04T06:25:10;7.70;;;4.53;;
1026;SDS011;502;48.746;9.214;2023-02-04T06:27:37;7.63;;;4.97;;
1026;SDS011;502;48.746;9.214;2023-02-04T06:30:04;8.33;;;4.50;;
1026;SDS011;502;48.746;9.214;2023-02-04T06:32:31;9.80;;;4.83;;
1026;SDS011;502;48.746;9.214;2023-02-04T06:34:58;11.23;;;4.30;;
1026;SDS011;502;48.746;9.214;2023-02-04T06:37:24;7.30;;;5.30;;
1026;SDS011;502;48.746;9.214;2023-02-04T06:39:51;9.77;;;4.33;;
1026;SDS011;502;48.746;9.214;2023-02-04T06:42:20;9.63;;;4.87;;
1026;SDS011;502;48.746;9.214;2023-02-04T06:44:46;9.03;;;4.33;;
1026;SDS011;502;48.746;9.214;2023-02-04T06:47:13;8.47;;;4.33;;
1026;SDS011;502;48.746;9.214;2023-02-04T06:49:40;7.17;;;4.60;;
1026;SDS011;502;48.746;9.214;2023-02-04T06:52:06;7.13;;;4.57;;
1026;SDS011;502;48.746;9.214;2023-02-04T06:54:33;7.80;;;4.80;;
1026;SDS011;502;48.746;9.214;2023-02-04T06:57:00;6.60;;;4.20;;
1026;SDS011;502;48.746;9.214;2023-02-04T06:59:32;6.67;;;5.00;;
1026;SDS011;502;48.746;9.214;2023-02-04T07:01:59;9.67;;;5.73;;
1026;SDS011;502;48.746;9.214;2023-02-04T07:04:25;8.10;;;5.40;;
1026;SDS011;502;48.746;9.214;2023-02-04T07:06:52;11.30;;;4.67;;
1026;SDS011;502;48.746;9.214;2023-02-04T07:09:19;9.43;;;5.60;;
1026;SDS011;502;48.746;9.214;2023-02-04T07:11:47;10.17;;;5.83;;
1026;SDS011;502;48.746;9.214;2023-02-04T07:14:13;7.53;;;5.13;;
1026;SDS011;502;48.746;9.214;2023-02-04T07:16:41;9.17;;;5.00;;
1026;SDS011;502;48.746;9.214;2023-02-04T07:19:08;11.60;;;5.60;;
1026;SDS011;502;48.746;9.214;2023-02-04T07:21:35;8.00;;;5.33;;
1026;SDS011;502;48.746;9.214;2023-02-04T07:24:01;9.53;;;5.77;;
1026;SDS011;502;48.746;9.214;2023-02-04T07:26:29;8.93;;;5.80;;
1026;SDS011;502;48.746;9.214;2023-02-04T07:28:55;8.07;;;5.17;;
1026;SDS011;502;48.746;9.214;2023-02-04T07:31:22;9.53;;;5.00;;
1026;SDS011;502;48.746;9.214;2023-02-04T07:33:50;8.17;;;5.10;;
1026;SDS011;502;48.746;9.214;2023-02-04T07:36:17;11.90;;;5.87;;
1026;SDS011;502;48.746;9.214;2023-02-04T07:38:43;13.10;;;5.40;;
1026;SDS011;502;48.746;9.214;2023-02-04T07:41:10;8.57;;;5.00;;
1026;SDS011;502;48.746;9.214;2023-02-04T07:43:37;8.47;;;5.20;;
1026;SDS011;502;48.746;9.214;2023-02-04T07:46:04;8.13;;;4.93;;
1026;SDS011;502;48.746;9.214;2023-02-04T07:48:31;14.17;;;5.10;;
1026;SDS011;502;48.746;9.214;2023-02-04T07:50:59;6.93;;;5.20;;
1026;SDS011;502;48.746;9.214;2023-02-04T07:53:26;9.47;;;5.07;;
1026;SDS011;502;48.746;9.214;2023-02-04T07:55:52;11.43;;;5.27;;
1026;SDS011;502;48.746;9.214;2023-02-04T07:58:19;15.80;;;5.60;;
1026;SDS011;502;48.746;9.214;2023-02-04T08:00:47;11.10;;;5.13;;
1026;SDS011;502;48.746;9.214;2023-02-04T08:03:14;10.10;;;4.53;;
1026;SDS011;502;48.746;9.214;2023-02-04T08:05:40;8.50;;;4.83;;
1026;SDS011;502;48.746;9.214;2023-02-04T08:08:08;11.83;;;4.27;;
1026;SDS011;502;48.746;9.214;2023-02-04T08:10:35;9.57;;;5.20;;
1026;SDS011;502;48.746;9.214;2023-02-04T08:13:02;6.40;;;3.90;;
1026;SDS011;502;48.746;9.214;2023-02-04T08:15:28;7.30;;;3.80;;
1026;SDS011;502;48.746;9.214;2023-02-04T08:17:55;8.73;;;4.00;;
1026;SDS011;502;48.746;9.214;2023-02-04T08:20:22;8.43;;;4.40;;
1026;SDS011;502;48.746;9.214;2023-02-04T08:22:49;13.53;;;4.40;;
1026;SDS011;502;48.746;9.214;2023-02-04T08:25:17;5.40;;;4.00;;
1026;SDS011;502;48.746;9.214;2023-02-04T08:27:44;7.03;;;3.93;;
1026;SDS011;502;48.746;9.214;2023-02-04T08:30:11;9.13;;;4.10;;
1026;SDS011;502;48.746;9.214;2023-02-04T08:32:38;5.47;;;4.23;;
1026;SDS011;502;48.746;9.214;2023-02-04T08:35:05;7.13;;;4.17;;
1026;SDS011;502;48.746;9.214;2023-02-04T08:37:37;10.30;;;4.20;;
1026;SDS011;502;48.746;9.214;2023-02-04T08:40:05;6.60;;;4.00;;
1026;SDS011;502;48.746;9.214;2023-02-04T08:42:33;7.80;;;3.57;;
1026;SDS011;502;48.746;9.214;2023-02-04T08:45:06;7.07;;;3.57;;
1026;SDS011;502;48.746;9.214;2023-02-04T08:47:34;12.43;;;4.67;;
1026;SDS011;502;48.746;9.214;2023-02-04T08:50:00;10.83;;;4.43;;
1026;SDS011;502;48.746;9.214;2023-02-04T08:52:27;10.83;;;4.20;;
1026;SDS011;502;48.746;9.214;2023-02-04T08:54:54;6.03;;;3.70;;
1026;SDS011;502;48.746;9.214;2023-02-04T08:57:21;10.17;;;4.93;;
1026;SDS011;502;48.746;9.214;2023-02-04T08:59:51;10.50;;;4.50;;
1026;SDS011;502;48.746;9.214;2023-02-04T09:02:18;9.30;;;4.83;;
1026;SDS011;502;48.746;9.214;2023-02-04T09:04:47;6.90;;;4.30;;
1026;SDS011;502;48.746;9.214;2023-02-04T09:07:15;10.47;;;5.10;;
1026;SDS011;502;48.746;9.214;2023-02-04T09:09:41;8.67;;;4.37;;
1026;SDS011;502;48.746;9.214;2023-02-04T09:12:08;9.13;;;3.60;;
1026;SDS011;502;48.746;9.214;2023-02-04T09:14:35;8.17;;;4.27;;
1026;SDS011;502;48.746;9.214;2023-02-04T09:17:03;7.67;;;3.63;;
1026;SDS011;502;48.746;9.214;2023-02-04T09:19:32;5.93;;;3.70;;
1026;SDS011;502;48.746;9.214;2023-02-04T09:21:58;10.20;;;4.27;;
1026;SDS011;502;48.746;9.214;2023-02-04T09:24:25;10.70;;;5.53;;
1026;SDS011;502;48.746;9.214;2023-02-04T09:26:52;9.27;;;4.30;;
1026;SDS011;502;48.746;9.214;2023-02-04T09:29:19;8.60;;;4.07;;
1026;SDS011;502;48.746;9.214;2023-02-04T09:31:46;8.20;;;4.90;;
1026;SDS011;502;48.746;9.214;2023-02-04T09:34:14;5.53;;;3.67;;
1026;SDS011;502;48.746;9.214;2023-02-04T09:36:41;8.87;;;3.80;;
1026;SDS011;502;48.746;9.214;2023-02-04T09:39:08;6.23;;;3.90;;
1026;SDS011;502;48.746;9.214;2023-02-04T09:41:35;9.37;;;4.47;;
1026;SDS011;502;48.746;9.214;2023-02-04T09:44:02;8.07;;;3.57;;
1026;SDS011;502;48.746;9.214;2023-02-04T09:46:30;8.97;;;3.87;;
1026;SDS011;502;48.746;9.214;2023-02-04T09:48:58;8.20;;;3.80;;
1026;SDS011;502;48.746;9.214;2023-02-04T09:51:27;8.33;;;4.30;;
1026;SDS011;502;48.746;9.214;2023-02-04T09:53:57;5.93;;;3.33;;
1026;SDS011;502;48.746;9.214;2023-02-04T09:56:31;5.47;;;3.50;;
1026;SDS011;502;48.746;9.214;2023-02-04T09:58:57;6.37;;;3.33;;
1026;SDS011;502;48.746;9.214;2023-02-04T10:01:25;7.77;;;3.20;;
1026;SDS011;502;48.746;9.214;2023-02-04T10:03:53;7.43;;;3.30;;
1026;SDS011;502;48.746;9.214;2023-02-04T10:06:22;4.33;;;2.27;;
1026;SDS011;502;48.746;9.214;2023-02-04T10:08:50;5.70;;;2.43;;
1026;SDS011;502;48.746;9.214;2023-02-04T10:11:18;6.57;;;2.60;;
1026;SDS011;502;48.746;9.214;2023-02-04T10:13:46;10.53;;;3.30;;
1026;SDS011;502;48.746;9.214;2023-02-04T10:16:15;7.83;;;2.80;;
1026;SDS011;502;48.746;9.214;2023-02-04T10:18:43;7.90;;;2.73;;
1026;SDS011;502;48.746;9.214;2023-02-04T10:21:11;8.20;;;3.50;;
1026;SDS011;502;48.746;9.214;2023-02-04T10:23:41;8.97;;;3.60;;
1026;SDS011;502;48.746;9.214;2023-02-04T10:26:11;4.60;;;2.70;;
1026;SDS011;502;48.746;9.214;2023-02-04T10:28:39;8.43;;;3.10;;
1026;SDS011;502;48.746;9.214;2023-02-04T10:31:06;6.00;;;2.80;;
1026;SDS011;502;48.746;9.214;2023-02-04T10:33:36;8.63;;;3.10;;
1026;SDS011;502;48.746;9.214;2023-02-04T10:36:04;6.27;;;3.23;;
1026;SDS011;502;48.746;9.214;2023-02-04T10:38:31;8.60;;;3.37;;
1026;SDS011;502;48.746;9.214;2023-02-04T10:41:01;6.50;;;3.50;;
1026;SDS011;502;48.746;9.214;2023-02-04T10:43:30;6.23;;;3.00;;
1026;SDS011;502;48.746;9.214;2023-02-04T10:45:58;7.60;;;3.63;;
1026;SDS011;502;48.746;9.214;2023-02-04T10:48:26;6.57;;;3.10;;
1026;SDS011;502;48.746;9.214;2023-02-04T10:50:54;5.73;;;3.57;;
1026;SDS011;502;48.746;9.214;2023-02-04T10:53:22;6.57;;;3.30;;
1026;SDS011;502;48.746;9.214;2023-02-04T10:56:09;6.33;;;2.73;;
1026;SDS011;502;48.746;9.214;2023-02-04T10:58:42;6.30;;;3.20;;
1026;SDS011;502;48.746;9.214;2023-02-04T11:01:09;5.67;;;3.00;;
1026;SDS011;502;48.746;9.214;2023-02-04T11:03:36;8.70;;;3.50;;
1026;SDS011;502;48.746;9.214;2023-02-04T11:06:04;7.20;;;4.17;;
1026;SDS011;502;48.746;9.214;2023-02-04T11:08:35;9.00;;;3.20;;
1026;SDS011;502;48.746;9.214;2023-02-04T11:11:03;6.87;;;3.00;;
1026;SDS011;502;48.746;9.214;2023-02-04T11:13:38;6.80;;;3.00;;
1026;SDS011;502;48.746;9.214;2023-02-04T11:16:09;6.10;;;2.40;;
1026;SDS011;502;48.746;9.214;2023-02-04T11:18:45;14.10;;;3.40;;
1026;SDS011;502;48.746;9.214;2023-02-04T11:21:14;6.27;;;3.23;;
1026;SDS011;502;48.746;9.214;2023-02-04T11:23:47;4.70;;;3.03;;
1026;SDS011;502;48.746;9.214;2023-02-04T11:26:15;9.67;;;3.73;;
1026;SDS011;502;48.746;9.214;2023-02-04T11:28:48;7.77;;;3.00;;
1026;SDS011;502;48.746;9.214;2023-02-04T11:31:28;8.63;;;4.60;;
1026;SDS011;502;48.746;9.214;2023-02-04T11:34:11;10.53;;;4.03;;
1026;SDS011;502;48.746;9.214;2023-02-04T11:36:54;6.23;;;3.20;;
1026;SDS011;502;48.746;9.214;2023-02-04T11:39:23;10.30;;;3.23;;
1026;SDS011;502;48.746;9.214;2023-02-04T11:41:54;8.07;;;3.73;;
1026;SDS011;502;48.746;9.214;2023-02-04T11:44:20;9.17;;;3.43;;
1026;SDS011;502;48.746;9.214;2023-02-04T11:46:52;7.87;;;3.17;;
1026;SDS011;502;48.746;9.214;2023-02-04T11:49:20;9.13;;;3.50;;
1026;SDS011;502;48.746;9.214;2023-02-04T11:51:48;5.43;;;2.97;;
1026;SDS011;502;48.746;9.214;2023-02-04T11:54:16;8.07;;;3.50;;
1026;SDS011;502;48.746;9.214;2023-02-04T11:56:44;7.70;;;2.70;;
1026;SDS011;502;48.746;9.214;2023-02-04T11:59:11;9.50;;;3.40;;
1026;SDS011;502;48.746;9.214;2023-02-04T12:01:39;6.83;;;2.63;;
1026;SDS011;502;48.746;9.214;2023-02-04T12:04:20;12.40;;;3.73;;
1026;SDS011;502;48.746;9.214;2023-02-04T12:06:55;10.20;;;3.10;;
1026;SDS011;502;48.746;9.214;2023-02-04T12:09:23;9.20;;;3.40;;
1026;SDS011;502;48.746;9.214;2023-02-04T12:11:52;9.63;;;3.57;;
1026;SDS011;502;48.746;9.214;2023-02-04T12:14:19;5.43;;;2.63;;
1026;SDS011;502;48.746;9.214;2023-02-04T12:16:46;10.07;;;3.30;;
1026;SDS011;502;48.746;9.214;2023-02-04T12:19:16;6.63;;;3.10;;
1026;SDS011;502;48.746;9.214;2023-02-04T12:21:43;8.40;;;3.17;;
1026;SDS011;502;48.746;9.214;2023-02-04T12:24:10;7.60;;;2.73;;
1026;SDS011;502;48.746;9.214;2023-02-04T12:26:37;11.30;;;3.80;;
1026;SDS011;502;48.746;9.214;2023-02-04T12:29:04;6.07;;;2.60;;
1026;SDS011;502;48.746;9.214;2023-02-04T12:31:31;6.90;;;2.17;;
1026;SDS011;502;48.746;9.214;2023-02-04T12:34:00;7.43;;;2.80;;
1026;SDS011;502;48.746;9.214;2023-02-04T12:36:28;5.10;;;2.50;;
1026;SDS011;502;48.746;9.214;2023-02-04T12:38:55;8.20;;;2.27;;
1026;SDS011;502;48.746;9.214;2023-02-04T12:41:23;7.17;;;2.37;;
1026;SDS011;502;48.746;9.214;2023-02-04T12:43:49;6.80;;;2.83;;
1026;SDS011;502;48.746;9.214;2023-02-04T12:46:16;5.87;;;2.90;;
1026;SDS011;502;48.746;9.214;2023-02-04T12:48:43;8.13;;;2.97;;
1026;SDS011;502;48.746;9.214;2023-02-04T12:51:10;5.03;;;2.27;;
1026;SDS011;502;48.746;9.214;2023-02-04T12:53:38;3.73;;;2.77;;
1026;SDS011;502;48.746;9.214;2023-02-04T12:56:05;8.07;;;3.07;;
1026;SDS011;502;48.746;9.214;2023-02-04T12:58:32;6.70;;;2.43;;
1026;SDS011;502;48.746;9.214;2023-02-04T13:00:58;5.50;;;3.20;;
1026;SDS011;502;48.746;9.214;2023-02-04T13:03:25;6.90;;;3.67;;
1026;SDS011;502;48.746;9.214;2023-02-04T13:05:52;7.40;;;3.57;;
1026;SDS011;502;48.746;9.214;2023-02-04T13:08:19;6.20;;;2.40;;
1026;SDS011;502;48.746;9.214;2023-02-04T13:10:47;13.10;;;5.33;;
1026;SDS011;502;48.746;9.214;2023-02-04T13:13:16;8.33;;;3.10;;
1026;SDS011;502;48.746;9.214;2023-02-04T13:15:43;6.90;;;2.90;;
1026;SDS011;502;48.746;9.214;2023-02-04T13:18:10;6.30;;;3.00;;
1026;SDS011;502;48.746;9.214;2023-02-04T13:20:37;6.40;;;2.40;;
1026;SDS011;502;48.746;9.214;2023-02-04T13:23:04;7.40;;;3.10;;
1026;SDS011;502;48.746;9.214;2023-02-04T13:25:30;11.27;;;3.27;;
1026;SDS011;502;48.746;9.214;2023-02-04T13:27:58;8.47;;;3.20;;
1026;SDS011;502;48.746;9.214;2023-02-04T13:30:25;4.77;;;2.50;;
1026;SDS011;502;48.746;9.214;2023-02-04T13:32:52;8.93;;;3.43;;
1026;SDS011;502;48.746;9.214;2023-02-04T13:35:19;5.60;;;2.90;;
1026;SDS011;502;48.746;9.214;2023-02-04T13:37:45;4.00;;;2.63;;
1026;SDS011;502;48.746;9.214;2023-02-04T13:40:12;3.53;;;2.70;;
1026;SDS011;502;48.746;9.214;2023-02-04T13:42:39;7.87;;;2.80;;
1026;SDS011;502;48.746;9.214;2023-02-04T13:45:08;11.57;;;3.03;;
1026;SDS011;502;48.746;9.214;2023-02-04T13:47:36;6.97;;;2.97;;
1026;SDS011;502;48.746;9.214;2023-02-04T13:50:04;4.93;;;2.97;;
1026;SDS011;502;48.746;9.214;2023-02-04T13:52:31;6.23;;;2.57;;
1026;SDS011;502;48.746;9.214;2023-02-04T13:54:58;10.80;;;3.30;;
1026;SDS011;502;48.746;9.214;2023-02-04T13:57:25;17.83;;;3.70;;
1026;SDS011;502;48.746;9.214;2023-02-04T13:59:52;4.23;;;2.70;;
1026;SDS011;502;48.746;9.214;2023-02-04T14:02:20;9.20;;;3.20;;
1026;SDS011;502;48.746;9.214;2023-02-04T14:04:48;6.07;;;3.90;;
1026;SDS011;502;48.746;9.214;2023-02-04T14:07:14;5.23;;;2.83;;
1026;SDS011;502;48.746;9.214;2023-02-04T14:09:41;6.10;;;3.00;;
1026;SDS011;502;48.746;9.214;2023-02-04T14:12:08;3.93;;;2.53;;
1026;SDS011;502;48.746;9.214;2023-02-04T14:14:35;4.43;;;2.20;;
1026;SDS011;502;48.746;9.214;2023-02-04T14:17:01;7.27;;;2.87;;
1026;SDS011;502;48.746;9.214;2023-02-04T14:19:29;7.10;;;2.30;;
1026;SDS011;502;48.746;9.214;2023-02-04T14:21:56;9.03;;;2.80;;
1026;SDS011;502;48.746;9.214;2023-02-04T14:24:23;4.77;;;2.63;;
1026;SDS011;502;48.746;9.214;2023-02-04T14:26:50;5.27;;;3.27;;
1026;SDS011;502;48.746;9.214;2023-02-04T14:29:17;5.10;;;3.70;;
1026;SDS011;502;48.746;9.214;2023-02-04T14:31:44;5.90;;;2.37;;
1026;SDS011;502;48.746;9.214;2023-02-04T14:34:10;3.73;;;2.13;;
1026;SDS011;502;48.746;9.214;2023-02-04T14:36:39;8.07;;;3.13;;
1026;SDS011;502;48.746;9.214;2023-02-04T14:39:05;9.90;;;3.83;;
1026;SDS011;502;48.746;9.214;2023-02-04T14:41:32;5.63;;;2.70;;
1026;SDS011;502;48.746;9.214;2023-02-04T14:43:59;7.00;;;3.37;;
1026;SDS011;502;48.746;9.214;2023-02-04T14:46:26;6.63;;;3.50;;
1026;SDS011;502;48.746;9.214;2023-02-04T14:48:52;5.43;;;3.00;;
1026;SDS011;502;48.746;9.214;2023-02-04T14:51:19;3.87;;;2.20;;
1026;SDS011;502;48.746;9.214;2023-02-04T14:53:47;11.10;;;3.80;;
1026;SDS011;502;48.746;9.214;2023-02-04T14:56:14;7.30;;;5.10;;
1026;SDS011;502;48.746;9.214;2023-02-04T14:58:41;6.60;;;3.53;;
1026;SDS011;502;48.746;9.214;2023-02-04T15:01:08;5.67;;;2.90;;
1026;SDS011;502;48.746;9.214;2023-02-04T15:03:35;9.87;;;3.87;;
1026;SDS011;502;48.746;9.214;2023-02-04T15:06:02;9.00;;;2.90;;
1026;SDS011;502;48.746;9.214;2023-02-04T15:08:32;7.93;;;3.50;;
1026;SDS011;502;48.746;9.214;2023-02-04T15:11:01;6.03;;;3.50;;
1026;SDS011;502;48.746;9.214;2023-02-04T15:13:27;6.33;;;3.40;;
1026;SDS011;502;48.746;9.214;2023-02-04T15:15:54;5.97;;;2.73;;
1026;SDS011;502;48.746;9.214;2023-02-04T15:18:21;6.73;;;3.03;;
1026;SDS011;502;48.746;9.214;2023-02-04T15:20:48;3.60;;;2.27;;
1026;SDS011;502;48.746;9.214;2023-02-04T15:23:15;6.87;;;3.40;;
1026;SDS011;502;48.746;9.214;2023-02-04T15:25:42;5.43;;;1.90;;
1026;SDS011;502;48.746;9.214;2023-02-04T15:28:11;5.07;;;2.17;;
1026;SDS011;502;48.746;9.214;2023-02-04T15:30:38;2.93;;;1.60;;
1026;SDS011;502;48.746;9.214;2023-02-04T15:33:04;9.27;;;2.70;;
1026;SDS011;502;48.746;9.214;2023-02-04T15:35:31;5.43;;;2.30;;